Time;durP1;ratioP1;P1;durP2;ratioP2;P2;SDS_P1;SDS_P2;PMS_P1;PMS_P2;Temp;Humidity;BMP_temperature;BMP_pressure;BME280_temperature;BME280_humidity;BME280_pressure;Samples;Min_cycle;Max_cycle;Signal;HPM_P1;HPM_P2
2022/05/21 00:00:43;;;;;;;5.25;1.60;;;;;;;15.20;100.00;100585.72;5266637;28;20102;-74
2022/05/21 00:03:14;;;;;;;4.73;1.77;;;;;;;15.13;100.00;100594.03;5266245;28;20035;-74
2022/05/21 00:05:45;;;;;;;1.95;1.50;;;;;;;15.08;100.00;100591.69;5265002;28;20281;-74
2022/05/21 00:08:15;;;;;;;2.53;1.40;;;;;;;15.10;100.00;100613.50;5253748;28;20035;-75
2022/05/21 00:10:46;;;;;;;2.63;1.80;;;;;;;15.05;100.00;100612.88;5264561;28;20032;-75
2022/05/21 00:13:16;;;;;;;3.58;1.85;;;;;;;14.88;100.00;100612.91;5266001;28;20282;-75
2022/05/21 00:15:47;;;;;;;3.22;1.92;;;;;;;14.75;100.00;100623.34;5266210;28;20020;-74
2022/05/21 00:18:19;;;;;;;3.55;1.83;;;;;;;14.63;100.00;100611.63;5261773;28;20035;-74
2022/05/21 00:20:49;;;;;;;3.42;1.88;;;;;;;14.29;100.00;100618.69;5264820;28;20407;-74
2022/05/21 00:23:26;;;;;;;5.90;2.25;;;;;;;14.39;100.00;100630.47;5265541;28;20024;-75
2022/05/21 00:26:07;;;;;;;3.15;2.22;;;;;;;14.13;100.00;100621.22;5265913;28;20504;-74
2022/05/21 00:28:40;;;;;;;6.60;2.78;;;;;;;14.14;100.00;100624.66;5264374;28;20638;-74
2022/05/21 00:31:13;;;;;;;5.60;2.50;;;;;;;14.02;100.00;100647.16;5261874;28;20039;-74
2022/05/21 00:33:45;;;;;;;5.80;2.80;;;;;;;14.02;100.00;100636.66;5264305;28;20039;-74
2022/05/21 00:36:16;;;;;;;8.25;3.13;;;;;;;14.08;100.00;100646.00;5265051;28;20063;-74
2022/05/21 00:38:46;;;;;;;7.80;3.08;;;;;;;14.07;100.00;100644.31;5265390;28;20024;-75
2022/05/21 00:41:18;;;;;;;5.43;2.83;;;;;;;14.11;100.00;100648.50;5265561;28;20028;-75
2022/05/21 00:43:52;;;;;;;3.95;2.90;;;;;;;14.11;100.00;100648.50;5265577;28;20373;-74
2022/05/21 00:46:25;;;;;;;4.38;2.78;;;;;;;14.12;100.00;100648.38;5262632;28;20034;-74
2022/05/21 00:49:05;;;;;;;4.40;2.92;;;;;;;14.16;100.00;100654.41;5263930;28;20046;-75
2022/05/21 00:51:43;;;;;;;4.30;2.90;;;;;;;14.07;100.00;100666.16;5265192;28;20129;-74
2022/05/21 00:54:16;;;;;;;4.57;2.92;;;;;;;14.20;100.00;100655.94;5261604;28;20031;-75
2022/05/21 00:56:54;;;;;;;6.22;3.33;;;;;;;14.26;100.00;100666.19;5264810;28;20070;-74
2022/05/21 01:02:19;;;;;;;6.30;2.78;;;;;;;14.15;100.00;100665.81;5262484;28;20043;-74
2022/05/21 01:04:50;;;;;;;4.07;2.65;;;;;;;14.19;100.00;100673.50;5263922;28;20157;-74
2022/05/21 01:07:20;;;;;;;3.88;2.47;;;;;;;14.15;100.00;100685.06;5263725;28;20091;-74
2022/05/21 01:09:56;;;;;;;5.10;2.50;;;;;;;14.26;100.00;100681.94;5265226;28;20047;-74
2022/05/21 01:12:31;;;;;;;4.05;2.58;;;;;;;14.22;100.00;100701.44;5263861;28;20767;-74
2022/05/21 01:15:06;;;;;;;3.60;2.15;;;;;;;14.16;100.00;100706.97;5263971;28;20024;-74
2022/05/21 01:17:38;;;;;;;3.55;1.90;;;;;;;14.21;100.00;100710.22;5260355;28;20031;-74
2022/05/21 01:20:13;;;;;;;4.43;1.63;;;;;;;14.12;100.00;100710.63;5264057;28;20032;-74
2022/05/21 01:22:46;;;;;;;2.90;1.65;;;;;;;14.11;100.00;100715.03;5261600;28;20440;-75
2022/05/21 01:25:22;;;;;;;3.05;1.73;;;;;;;14.16;100.00;100728.88;5264903;28;20115;-74
2022/05/21 01:27:56;;;;;;;2.53;1.52;;;;;;;14.01;100.00;100726.91;5263050;28;20016;-74
2022/05/21 01:30:34;;;;;;;6.13;1.58;;;;;;;13.99;100.00;100734.03;5263753;28;20043;-75
2022/05/21 01:33:07;;;;;;;5.97;1.75;;;;;;;14.10;100.00;100734.34;5264284;28;20024;-75
2022/05/21 01:35:40;;;;;;;5.47;1.73;;;;;;;14.08;100.00;100730.13;5263069;28;20031;-74
2022/05/21 01:38:12;;;;;;;2.38;1.60;;;;;;;14.09;100.00;100723.94;5259413;28;20024;-74
2022/05/21 01:40:43;;;;;;;3.60;2.00;;;;;;;14.10;100.00;100739.63;5264373;28;20103;-74
2022/05/21 01:46:03;;;;;;;3.85;2.00;;;;;;;14.09;100.00;100732.66;5264290;28;20055;-74
2022/05/21 01:48:33;;;;;;;3.30;1.80;;;;;;;13.96;100.00;100735.94;5259271;28;20050;-73
2022/05/21 01:51:06;;;;;;;2.80;2.00;;;;;;;13.79;100.00;100738.50;5264255;28;20059;-73
2022/05/21 01:53:39;;;;;;;4.10;2.10;;;;;;;13.82;100.00;100739.22;5262799;28;20038;-73
2022/05/21 01:56:11;;;;;;;3.15;1.90;;;;;;;13.62;100.00;100741.91;5259830;28;20031;-73
2022/05/21 01:58:42;;;;;;;5.82;2.30;;;;;;;13.58;100.00;100750.81;5263084;28;20031;-73
2022/05/21 02:01:13;;;;;;;3.88;2.33;;;;;;;13.57;100.00;100754.38;5263867;28;20686;-73
2022/05/21 02:03:44;;;;;;;3.20;2.10;;;;;;;13.55;100.00;100763.25;5263424;28;20030;-73
2022/05/21 02:06:14;;;;;;;3.95;2.35;;;;;;;13.54;100.00;100756.31;5262450;28;20028;-73
2022/05/21 02:08:44;;;;;;;3.50;2.17;;;;;;;13.46;100.00;100767.16;5261751;28;20031;-73
2022/05/21 02:11:14;;;;;;;3.33;2.15;;;;;;;13.29;100.00;100774.03;5262138;28;20031;-73
2022/05/21 02:13:45;;;;;;;4.22;2.05;;;;;;;13.31;100.00;100780.94;5263930;28;20504;-73
2022/05/21 02:16:15;;;;;;;3.50;1.77;;;;;;;13.25;100.00;100777.72;5263268;28;20028;-73
2022/05/21 02:18:45;;;;;;;2.83;1.90;;;;;;;13.25;100.00;100781.19;5263100;28;20273;-74
2022/05/21 02:21:17;;;;;;;3.75;1.90;;;;;;;13.32;100.00;100790.50;5262510;28;20027;-73
2022/05/21 02:23:47;;;;;;;3.72;1.70;;;;;;;13.30;100.00;100791.50;5263296;28;20140;-73
2022/05/21 02:26:18;;;;;;;2.67;1.37;;;;;;;13.17;99.47;100796.41;5263067;28;20499;-73
2022/05/21 02:28:48;;;;;;;3.43;1.73;;;;;;;13.22;100.00;100801.47;5263016;28;20643;-73
2022/05/21 02:31:18;;;;;;;6.70;1.90;;;;;;;13.14;100.00;100803.56;5261660;28;20943;-73
2022/05/21 02:33:49;;;;;;;6.68;1.90;;;;;;;13.27;100.00;100807.38;5263293;28;20038;-73
2022/05/21 02:39:25;;;;;;;3.25;1.80;;;;;;;13.08;100.00;100814.31;5262739;28;20677;-73
2022/05/21 02:41:59;;;;;;;3.58;1.80;;;;;;;13.27;100.00;100823.97;5263356;28;20114;-73
2022/05/21 02:44:30;;;;;;;4.13;1.70;;;;;;;13.26;100.00;100821.41;5262808;28;20028;-73
2022/05/21 02:47:00;;;;;;;4.93;1.90;;;;;;;13.40;100.00;100826.94;5258905;28;20035;-73
2022/05/21 02:49:30;;;;;;;3.60;2.38;;;;;;;13.36;100.00;100831.47;5261098;28;20112;-73
2022/05/21 02:52:01;;;;;;;4.27;2.40;;;;;;;13.35;100.00;100831.50;5261555;28;20051;-73
2022/05/21 02:54:31;;;;;;;4.53;2.67;;;;;;;13.27;100.00;100838.88;5262817;28;20266;-74
2022/05/21 02:57:01;;;;;;;4.17;2.60;;;;;;;13.25;100.00;100832.84;5262025;28;20284;-73
2022/05/21 02:59:31;;;;;;;5.38;3.10;;;;;;;13.22;100.00;100835.59;5262689;28;20274;-73
2022/05/21 03:02:02;;;;;;;3.40;2.50;;;;;;;13.11;100.00;100850.94;5262439;28;20032;-73
2022/05/21 03:04:32;;;;;;;5.47;2.78;;;;;;;13.18;100.00;100855.88;5262342;28;20270;-74
2022/05/21 03:07:03;;;;;;;4.65;3.05;;;;;;;13.12;100.00;100861.38;5261739;28;20461;-73
2022/05/21 03:12:22;;;;;;;5.03;3.13;;;;;;;13.13;100.00;100873.59;5260652;28;20035;-73
2022/05/21 03:14:52;;;;;;;5.32;3.15;;;;;;;13.13;100.00;100865.72;5261551;28;20480;-73
2022/05/21 03:17:26;;;;;;;6.53;2.97;;;;;;;13.01;100.00;100862.72;5261426;28;20481;-73
2022/05/21 03:19:56;;;;;;;5.57;3.30;;;;;;;13.24;100.00;100881.00;5262611;28;20281;-74
2022/05/21 03:22:27;;;;;;;4.53;3.30;;;;;;;13.16;100.00;100875.19;5262095;28;20024;-73
2022/05/21 03:24:58;;;;;;;6.95;3.35;;;;;;;13.39;100.00;100875.13;5261249;28;20060;-74
2022/05/21 03:27:28;;;;;;;4.82;3.35;;;;;;;13.27;100.00;100875.63;5256637;28;20016;-73
2022/05/21 03:29:59;;;;;;;5.77;4.10;;;;;;;13.28;100.00;100872.94;5261842;28;20125;-73
2022/05/21 03:32:29;;;;;;;5.35;3.85;;;;;;;13.34;100.00;100883.19;5260495;28;20274;-74
2022/05/21 03:34:59;;;;;;;6.72;3.45;;;;;;;13.39;100.00;100878.59;5261351;28;20118;-73
2022/05/21 03:37:29;;;;;;;5.18;3.40;;;;;;;13.41;100.00;100879.38;5260025;28;20028;-73
2022/05/21 03:40:00;;;;;;;4.28;3.38;;;;;;;13.41;100.00;100875.91;5262346;28;20043;-74
2022/05/21 03:42:30;;;;;;;6.32;3.65;;;;;;;13.67;100.00;100875.63;5261595;28;20024;-73
2022/05/21 03:45:01;;;;;;;6.90;3.58;;;;;;;13.71;100.00;100882.47;5262294;28;20488;-74
2022/05/21 03:47:31;;;;;;;6.40;3.40;;;;;;;13.70;100.00;100878.13;5261566;28;20111;-74
2022/05/21 03:50:03;;;;;;;7.35;3.45;;;;;;;13.68;100.00;100872.94;5260934;28;20149;-73
2022/05/21 03:52:33;;;;;;;4.63;3.15;;;;;;;13.59;100.00;100875.97;5260371;28;20795;-74
2022/05/21 03:55:04;;;;;;;5.88;3.58;;;;;;;13.70;100.00;100872.88;5262336;28;20031;-73
2022/05/21 03:57:35;;;;;;;4.13;2.88;;;;;;;13.79;100.00;100875.09;5261456;28;20024;-74
2022/05/21 04:00:08;;;;;;;5.80;3.22;;;;;;;13.54;100.00;100874.47;5260567;28;20024;-74
2022/05/21 04:02:39;;;;;;;7.68;3.80;;;;;;;13.55;100.00;100873.56;5261979;28;20019;-74
2022/05/21 04:05:11;;;;;;;4.97;3.00;;;;;;;13.58;100.00;100887.38;5262075;28;20039;-74
2022/05/21 04:07:42;;;;;;;5.20;3.10;;;;;;;13.62;100.00;100872.34;5256692;28;20059;-73
2022/05/21 04:10:15;;;;;;;6.50;3.28;;;;;;;13.58;100.00;100876.88;5261280;28;20051;-73
2022/05/21 04:12:45;;;;;;;5.43;3.55;;;;;;;13.59;100.00;100877.75;5262585;28;20024;-73
2022/05/21 04:15:15;;;;;;;6.53;3.60;;;;;;;13.63;100.00;100880.19;5262244;28;20740;-73
2022/05/21 04:17:46;;;;;;;4.82;3.40;;;;;;;13.65;100.00;100882.72;5257475;28;20032;-74
2022/05/21 04:20:17;;;;;;;7.10;3.70;;;;;;;13.87;100.00;100888.75;5261578;28;20070;-73
2022/05/21 04:22:47;;;;;;;5.32;3.20;;;;;;;13.84;100.00;100888.88;5262257;28;20473;-74
2022/05/21 04:25:19;;;;;;;8.02;3.22;;;;;;;13.70;100.00;100891.25;5260669;28;20042;-73
2022/05/21 04:27:49;;;;;;;6.20;3.40;;;;;;;13.84;100.00;100891.50;5261290;28;20033;-73
2022/05/21 04:30:28;;;;;;;6.65;3.33;;;;;;;13.88;100.00;100891.31;5261401;28;20123;-73
2022/05/21 04:32:58;;;;;;;5.45;3.20;;;;;;;13.80;100.00;100897.81;5261867;28;20032;-74
2022/05/21 04:36:17;;;;;;;6.05;3.10;;;;;;;13.72;100.00;100887.66;5263441;28;20961;-73
2022/05/21 04:38:19;;;;;;;5.65;3.38;;;;;;;14.32;99.25;100892.00;5261765;28;20043;-73
2022/05/21 04:40:49;;;;;;;6.07;3.40;;;;;;;14.78;95.42;100884.50;5265574;28;20028;-74
2022/05/21 04:43:19;;;;;;;5.77;3.30;;;;;;;14.80;93.64;100885.28;5265532;28;20035;-73
2022/05/21 04:45:50;;;;;;;3.80;2.87;;;;;;;14.80;93.01;100881.81;5265526;28;20277;-73
2022/05/21 04:48:20;;;;;;;6.67;2.93;;;;;;;14.94;90.62;100885.47;5260796;28;20266;-73
2022/05/21 04:50:51;;;;;;;5.38;2.95;;;;;;;14.70;93.03;100873.50;5265101;28;20786;-74
2022/05/21 04:53:21;;;;;;;6.88;3.10;;;;;;;14.39;93.55;100873.22;5264802;28;20485;-73
2022/05/21 04:55:51;;;;;;;5.45;2.85;;;;;;;14.59;92.68;100864.41;5264287;28;20044;-73
2022/05/21 04:58:22;;;;;;;8.97;3.47;;;;;;;14.63;92.95;100879.97;5264541;28;20043;-74
2022/05/21 05:00:52;;;;;;;5.97;2.63;;;;;;;14.63;93.45;100872.06;5265413;28;20274;-74
2022/05/21 05:03:23;;;;;;;7.30;3.28;;;;;;;15.13;90.57;100868.72;5264788;28;20102;-73
2022/05/21 05:05:53;;;;;;;5.75;2.88;;;;;;;15.51;90.02;100870.31;5264045;28;20513;-73
2022/05/21 05:08:25;;;;;;;5.47;2.90;;;;;;;15.31;89.40;100878.38;5261640;28;20603;-73
2022/05/21 05:10:55;;;;;;;4.35;2.92;;;;;;;15.45;89.04;100870.63;5265365;28;20028;-73
2022/05/21 05:13:26;;;;;;;5.28;2.95;;;;;;;15.11;88.98;100881.09;5264916;28;20036;-73
2022/05/21 05:15:56;;;;;;;5.43;3.10;;;;;;;14.81;90.66;100871.22;5264975;28;20028;-73
2022/05/21 05:18:30;;;;;;;7.22;3.30;;;;;;;14.68;94.34;100875.34;5260235;28;20296;-73
2022/05/21 05:21:01;;;;;;;6.93;3.40;;;;;;;14.61;94.18;100865.19;5264727;28;20027;-73
2022/05/21 05:23:32;;;;;;;5.38;3.20;;;;;;;14.67;92.13;100872.78;5264215;28;20036;-73
2022/05/21 05:26:02;;;;;;;6.77;3.10;;;;;;;14.66;90.14;100871.09;5264616;28;20401;-73
2022/05/21 05:28:32;;;;;;;4.20;2.83;;;;;;;14.63;91.04;100866.81;5264012;28;20266;-73
2022/05/21 05:31:03;;;;;;;7.70;3.47;;;;;;;14.60;91.71;100866.13;5263506;28;20050;-73
2022/05/21 05:33:33;;;;;;;7.40;4.28;;;;;;;14.42;93.24;100861.72;5264028;28;20027;-73
2022/05/21 05:36:03;;;;;;;7.05;3.78;;;;;;;14.64;91.73;100862.41;5264439;28;20028;-73
2022/05/21 05:38:34;;;;;;;8.95;4.13;;;;;;;14.88;90.77;100857.66;5264064;28;20031;-73
2022/05/21 05:41:08;;;;;;;10.45;4.18;;;;;;;15.06;90.54;100850.66;5264982;28;20056;-73
2022/05/21 05:43:38;;;;;;;9.18;4.38;;;;;;;15.08;90.20;100849.66;5264069;28;20027;-73
2022/05/21 05:46:08;;;;;;;11.93;5.53;;;;;;;15.10;88.56;100853.06;5263213;28;20032;-73
2022/05/21 05:48:38;;;;;;;6.50;4.68;;;;;;;14.82;91.94;100852.72;5262844;28;20281;-73
2022/05/21 05:51:09;;;;;;;8.32;4.80;;;;;;;14.88;91.36;100855.03;5263673;28;20120;-73
2022/05/21 05:53:39;;;;;;;9.53;5.10;;;;;;;14.93;92.09;100852.19;5262749;28;20028;-73
2022/05/21 05:56:10;;;;;;;7.70;5.30;;;;;;;15.05;91.05;100844.53;5260595;28;20270;-73
2022/05/21 06:01:30;;;;;;;7.95;5.80;;;;;;;15.28;90.38;100835.50;5260739;28;20566;-73
2022/05/21 06:04:01;;;;;;;11.65;6.15;;;;;;;15.35;89.48;100837.78;5260754;28;20027;-73
2022/05/21 06:06:32;;;;;;;9.27;5.95;;;;;;;15.57;87.85;100848.06;5262270;28;20423;-73
2022/05/21 06:09:02;;;;;;;9.52;6.32;;;;;;;15.29;89.32;100853.03;5262507;28;20030;-73
2022/05/21 06:11:37;;;;;;;10.65;6.50;;;;;;;15.20;91.48;100854.31;5263180;28;20481;-73
2022/05/21 06:14:09;;;;;;;12.50;7.00;;;;;;;15.27;91.80;100860.13;5263305;28;20054;-73
2022/05/21 06:16:39;;;;;;;11.95;7.03;;;;;;;15.40;89.40;100850.72;5261491;28;20801;-73
2022/05/21 06:19:09;;;;;;;9.30;6.67;;;;;;;15.45;88.48;100852.19;5262595;28;20035;-73
2022/05/21 06:21:40;;;;;;;13.03;7.40;;;;;;;15.38;89.06;100863.94;5261253;28;20270;-73
2022/05/21 06:24:10;;;;;;;12.02;7.28;;;;;;;15.27;90.08;100860.13;5262435;28;20376;-73
2022/05/21 06:26:40;;;;;;;11.38;7.15;;;;;;;15.43;89.32;100867.22;5259622;28;20027;-73
2022/05/21 06:29:10;;;;;;;10.50;6.73;;;;;;;15.42;89.03;100870.78;5262659;28;20032;-73
2022/05/21 06:31:41;;;;;;;10.43;6.93;;;;;;;15.42;88.65;100876.06;5263605;28;20274;-73
2022/05/21 06:34:11;;;;;;;9.30;6.73;;;;;;;15.58;89.37;100871.72;5263212;28;20327;-73
2022/05/21 06:36:41;;;;;;;10.88;7.18;;;;;;;15.89;88.89;100874.44;5261880;28;20358;-73
2022/05/21 06:39:11;;;;;;;9.82;6.82;;;;;;;15.78;88.36;100874.19;5261655;28;20032;-73
2022/05/21 06:41:42;;;;;;;11.10;7.03;;;;;;;15.63;89.68;100876.72;5261955;28;20411;-73
2022/05/21 06:44:12;;;;;;;12.05;7.88;;;;;;;15.63;89.32;100877.59;5262680;28;20374;-73
2022/05/21 06:46:43;;;;;;;9.52;7.15;;;;;;;15.47;89.87;100878.44;5261801;28;20457;-73
2022/05/21 06:49:13;;;;;;;11.32;7.10;;;;;;;15.51;91.36;100870.31;5262048;28;20073;-73
2022/05/21 06:51:44;;;;;;;11.43;7.88;;;;;;;15.38;91.72;100876.28;5262675;28;20424;-73
2022/05/21 06:54:15;;;;;;;10.25;7.47;;;;;;;15.17;91.15;100880.78;5262176;28;20043;-73
2022/05/21 06:56:45;;;;;;;9.35;7.35;;;;;;;15.27;91.70;100875.94;5261200;28;20024;-73
2022/05/21 06:59:17;;;;;;;9.80;7.40;;;;;;;15.00;92.46;100878.13;5262456;28;20043;-73
2022/05/21 07:01:47;;;;;;;10.68;8.00;;;;;;;15.07;92.33;100890.09;5262456;28;20734;-73
2022/05/21 07:07:32;;;;;;;11.93;7.70;;;;;;;14.89;94.97;100890.13;5262149;28;20065;-73
2022/05/21 07:10:06;;;;;;;10.90;7.65;;;;;;;15.06;94.55;100880.50;5260828;28;20042;-72
2022/05/21 07:12:37;;;;;;;11.10;7.47;;;;;;;15.12;93.40;100892.47;5262679;28;20020;-73
2022/05/21 07:15:08;;;;;;;9.88;7.88;;;;;;;14.96;93.74;100887.13;5261677;28;20085;-73
2022/05/21 07:17:38;;;;;;;14.45;8.40;;;;;;;14.97;94.16;100894.09;5257938;28;20031;-73
2022/05/21 07:20:14;;;;;;;9.70;7.93;;;;;;;14.98;93.21;100901.06;5262159;28;20050;-73
2022/05/21 07:22:47;;;;;;;13.75;8.90;;;;;;;15.04;93.21;100902.53;5259367;28;20111;-73
2022/05/21 07:25:21;;;;;;;11.98;8.48;;;;;;;14.84;95.61;100906.13;5262705;28;20032;-73
2022/05/21 07:27:52;;;;;;;11.15;8.73;;;;;;;14.71;97.77;100908.53;5262123;28;20020;-73
2022/05/21 07:30:23;;;;;;;15.38;9.02;;;;;;;14.96;95.45;100902.91;5261921;28;20024;-73
2022/05/21 07:32:55;;;;;;;13.65;9.20;;;;;;;14.88;94.83;100910.31;5262350;28;20131;-72
2022/05/21 07:35:27;;;;;;;15.65;9.40;;;;;;;14.93;95.26;100904.81;5261826;28;20683;-73
2022/05/21 07:37:57;;;;;;;14.20;9.32;;;;;;;14.84;95.87;100900.84;5260098;28;20028;-73
2022/05/21 07:40:28;;;;;;;14.63;9.75;;;;;;;14.86;95.65;100906.91;5261749;28;20049;-73
2022/05/21 07:42:58;;;;;;;15.00;10.15;;;;;;;14.83;96.79;100904.41;5262415;28;20423;-73
2022/05/21 07:45:28;;;;;;;14.23;9.82;;;;;;;14.81;96.23;100909.84;5258346;28;20027;-73
2022/05/21 07:47:58;;;;;;;17.90;10.27;;;;;;;14.91;95.11;100917.22;5262471;28;20048;-75
2022/05/21 07:50:29;;;;;;;13.10;9.80;;;;;;;14.90;95.73;100907.59;5261727;28;20281;-75
2022/05/21 07:52:59;;;;;;;13.27;9.70;;;;;;;15.00;94.96;100915.00;5260851;28;20319;-74
2022/05/21 07:55:29;;;;;;;14.20;9.90;;;;;;;15.01;95.81;100911.44;5257641;28;20301;-74
2022/05/21 07:58:00;;;;;;;13.90;9.32;;;;;;;14.87;95.16;100913.03;5260681;28;20035;-74
2022/05/21 08:00:30;;;;;;;13.33;9.07;;;;;;;15.10;96.15;100916.25;5259470;28;20040;-74
2022/05/21 08:03:00;;;;;;;15.48;10.32;;;;;;;15.13;96.39;100924.00;5260864;28;20746;-75
2022/05/21 08:05:31;;;;;;;30.10;11.15;;;;;;;15.19;96.72;100914.97;5260829;28;20123;-74
2022/05/21 08:08:01;;;;;;;15.23;9.70;;;;;;;15.41;95.78;100919.13;5261243;28;20063;-75
2022/05/21 08:10:31;;;;;;;89.00;16.25;;;;;;;15.45;94.71;100911.91;5264507;28;20031;-74
2022/05/21 08:13:02;;;;;;;35.42;10.77;;;;;;;15.53;97.14;100923.78;5264916;28;20062;-75
2022/05/21 08:15:34;;;;;;;18.15;10.05;;;;;;;15.51;94.22;100923.00;5264620;28;20032;-75
2022/05/21 08:18:05;;;;;;;25.75;10.20;;;;;;;15.88;94.18;100922.00;5260961;28;20064;-75
2022/05/21 08:20:36;;;;;;;21.95;10.63;;;;;;;15.80;94.43;100916.25;5264338;28;20044;-75
2022/05/21 08:28:51;;;;;;;20.88;9.93;;;;;;;15.73;97.29;100926.25;5261219;28;20047;-74
2022/05/21 08:31:21;;;;;;;25.55;10.45;;;;;;;15.99;95.47;100919.63;5263861;28;20040;-73
2022/05/21 08:33:51;;;;;;;13.73;9.38;;;;;;;15.98;93.72;100924.06;5265080;28;20456;-75
2022/05/21 08:36:22;;;;;;;12.60;8.73;;;;;;;15.96;94.48;100910.13;5263512;28;20063;-74
2022/05/21 08:38:52;;;;;;;13.90;8.75;;;;;;;16.04;93.58;100909.72;5260731;28;20281;-77
2022/05/21 08:41:25;;;;;;;13.27;9.23;;;;;;;16.11;93.50;100904.03;5260579;28;20047;-74
2022/05/21 08:44:08;;;;;;;14.35;8.82;;;;;;;16.54;92.14;100897.34;5260352;28;20043;-76
2022/05/21 08:46:58;;;;;;;12.98;8.02;;;;;;;18.07;86.49;100890.03;5261116;28;20519;-75
2022/05/21 08:49:38;;;;;;;9.93;6.72;;;;;;;20.73;76.56;100884.34;5261747;28;20028;-75
2022/05/21 08:52:26;;;;;;;8.82;5.80;;;;;;;21.83;71.77;100868.91;5263462;28;20040;-75
2022/05/21 08:54:59;;;;;;;8.38;4.70;;;;;;;23.25;68.64;100878.66;5264107;28;20050;-76
2022/05/21 08:57:44;;;;;;;8.25;5.07;;;;;;;23.00;67.54;100877.13;5261663;28;20067;-74
2022/05/21 09:00:24;;;;;;;6.68;4.05;;;;;;;23.92;64.37;100885.38;5260915;28;20066;-75
2022/05/21 09:02:55;;;;;;;6.18;4.10;;;;;;;23.28;66.19;100881.06;5263883;28;20032;-76
2022/05/21 09:05:25;;;;;;;6.53;3.50;;;;;;;23.06;66.91;100889.09;5263998;28;20031;-75
2022/05/21 09:08:03;;;;;;;5.68;3.70;;;;;;;21.28;69.36;100896.16;5263331;28;20040;-76
2022/05/21 09:11:01;;;;;;;10.10;5.30;;;;;;;20.37;72.74;100888.75;5262735;28;20691;-76
2022/05/21 09:13:47;;;;;;;12.52;6.20;;;;;;;19.83;75.33;100896.09;5265199;28;20063;-75
2022/05/21 09:19:08;;;;;;;18.02;8.80;;;;;;;18.43;80.39;100900.16;5260526;28;20089;-75
2022/05/21 09:21:45;;;;;;;13.60;6.22;;;;;;;18.66;79.90;100892.47;5260735;28;20028;-75
2022/05/21 09:24:43;;;;;;;9.05;4.88;;;;;;;19.08;78.33;100890.56;5262860;28;20080;-75
2022/05/21 09:27:32;;;;;;;7.43;4.10;;;;;;;19.56;75.86;100878.50;5258362;28;20066;-75
2022/05/21 09:30:20;;;;;;;6.97;4.13;;;;;;;19.67;77.06;100881.31;5263553;28;20030;-76
2022/05/21 09:32:54;;;;;;;10.45;4.57;;;;;;;19.21;78.14;100882.66;5257306;28;20047;-75
2022/05/21 09:35:31;;;;;;;9.13;4.32;;;;;;;18.82;78.03;100883.47;5260902;28;20150;-72
2022/05/21 09:38:13;;;;;;;7.80;4.35;;;;;;;18.40;80.67;100887.13;5261637;28;20531;-75
2022/05/21 09:40:43;;;;;;;9.80;4.60;;;;;;;17.90;81.38;100890.22;5258184;28;20032;-75
2022/05/21 09:46:16;;;;;;;6.53;4.45;;;;;;;17.31;84.07;100886.72;5261352;28;20277;-74
2022/05/21 09:48:49;;;;;;;8.98;4.60;;;;;;;17.00;85.11;100884.13;5260857;28;20524;-75
2022/05/21 09:51:24;;;;;;;7.38;4.78;;;;;;;16.86;86.35;100878.78;5262180;28;20125;-75
2022/05/21 09:53:55;;;;;;;10.57;5.00;;;;;;;16.72;87.27;100881.31;5262810;28;20036;-75
2022/05/21 09:56:33;;;;;;;9.48;4.97;;;;;;;16.48;86.79;100893.25;5262034;28;20047;-74
2022/05/21 09:59:16;;;;;;;11.25;5.38;;;;;;;16.58;86.51;100898.88;5261634;28;20042;-75
2022/05/21 10:01:49;;;;;;;8.27;5.57;;;;;;;16.72;86.06;100901.63;5259693;28;20103;-75
2022/05/21 10:04:27;;;;;;;9.63;5.30;;;;;;;16.91;85.98;100890.78;5262489;28;20036;-75
2022/05/21 10:07:07;;;;;;;12.18;5.10;;;;;;;17.01;87.24;100904.31;5262607;28;20074;-75
2022/05/21 10:12:42;;;;;;;9.13;4.88;;;;;;;16.86;87.31;100908.69;5258239;28;20058;-75
2022/05/21 10:15:18;;;;;;;8.13;4.85;;;;;;;16.93;87.74;100909.16;5263260;28;20040;-75
2022/05/21 10:18:01;;;;;;;8.25;4.70;;;;;;;16.97;86.68;100914.19;5254683;28;20027;-75
2022/05/21 10:20:43;;;;;;;7.68;4.35;;;;;;;17.27;85.24;100911.59;5261389;28;20149;-75
2022/05/21 10:23:50;;;;;;;12.60;4.93;;;;;;;17.47;85.01;100903.41;5259007;28;20020;-75
2022/05/21 10:26:50;;;;;;;11.95;4.90;;;;;;;18.47;81.12;100899.00;5257778;28;20024;-75
2022/05/21 10:29:29;;;;;;;8.57;4.30;;;;;;;18.96;79.92;100894.00;5259093;28;20055;-76
2022/05/21 10:32:21;;;;;;;9.93;4.15;;;;;;;19.15;79.61;100894.53;5262954;28;20516;-75
2022/05/21 10:35:14;;;;;;;7.80;3.97;;;;;;;18.83;78.76;100906.34;5260079;28;20393;-75
2022/05/21 10:37:57;;;;;;;9.80;3.72;;;;;;;19.11;77.10;100900.94;5257563;28;20035;-75
2022/05/21 10:40:34;;;;;;;10.13;3.60;;;;;;;19.76;78.01;100902.75;5261796;28;20040;-75
2022/05/21 10:43:16;;;;;;;10.50;3.88;;;;;;;19.19;77.26;100898.69;5259557;28;20044;-75
2022/05/21 10:46:27;;;;;;;8.73;2.95;;;;;;;18.76;78.38;100906.84;5260302;28;20059;-75
2022/05/21 10:49:16;;;;;;;9.30;3.88;;;;;;;18.17;86.45;100922.06;5259296;28;20036;-75
2022/05/21 10:52:00;;;;;;;7.47;4.03;;;;;;;17.64;90.46;100924.44;5261635;28;20020;-75
2022/05/21 10:55:02;;;;;;;13.48;5.20;;;;;;;17.21;97.52;100931.31;5260175;28;20032;-75
2022/05/21 10:57:48;;;;;;;8.77;5.07;;;;;;;17.47;99.59;100933.34;5259777;28;20098;-75
2022/05/21 11:00:29;;;;;;;12.68;5.20;;;;;;;17.54;100.00;100920.63;5256921;28;20502;-74
2022/05/21 11:03:21;;;;;;;10.82;5.60;;;;;;;18.22;98.98;100910.25;5260954;28;20039;-74
2022/05/21 11:06:25;;;;;;;9.43;4.30;;;;;;;18.53;92.42;100902.13;5260591;28;20071;-75
2022/05/21 11:09:25;;;;;;;8.15;3.92;;;;;;;18.57;91.18;100908.09;5258130;28;20496;-75
2022/05/21 11:12:01;;;;;;;10.43;4.40;;;;;;;18.56;91.06;100898.44;5258498;28;20509;-75
2022/05/21 11:14:42;;;;;;;7.20;4.00;;;;;;;18.71;89.10;100897.47;5259554;28;20543;-75
2022/05/21 11:17:39;;;;;;;10.18;4.57;;;;;;;19.05;88.64;100898.72;5256591;28;20457;-75
2022/05/21 11:20:21;;;;;;;10.13;4.40;;;;;;;19.03;88.21;100903.25;5256923;28;20392;-75
2022/05/21 11:23:08;;;;;;;8.48;4.18;;;;;;;18.79;85.37;100886.28;5261249;28;20508;-75
2022/05/21 11:25:45;;;;;;;9.35;3.97;;;;;;;18.99;85.09;100895.59;5258352;28;20047;-76
2022/05/21 11:28:43;;;;;;;9.10;3.50;;;;;;;18.94;82.19;100903.00;5255789;28;20039;-74
2022/05/21 11:37:20;;;;;;;9.68;3.47;;;;;;;18.63;82.06;100907.69;5254903;28;20040;-75
2022/05/21 11:37:23;;;;;;;7.05;3.30;;;;;;;18.19;83.96;100905.13;5259916;28;20164;-77
2022/05/21 11:39:55;;;;;;;10.00;3.20;;;;;;;18.01;83.90;100908.91;5259739;28;20027;-77
2022/05/21 11:42:36;;;;;;;8.95;3.30;;;;;;;17.73;86.19;100905.38;5259354;28;20048;-76
2022/05/21 11:45:22;;;;;;;7.05;3.25;;;;;;;17.77;88.49;100912.16;5267070;28;20064;-76
2022/05/21 11:48:09;;;;;;;15.02;4.40;;;;;;;17.26;91.87;100925.75;5265234;28;20055;-77
2022/05/21 11:50:40;;;;;;;11.23;4.22;;;;;;;16.83;100.00;100929.13;5267153;28;20032;-76
2022/05/21 11:53:34;;;;;;;11.02;4.38;;;;;;;16.64;100.00;100930.19;5265697;28;20044;-74
2022/05/21 11:56:08;;;;;;;10.10;5.05;;;;;;;16.98;100.00;100925.63;5265773;28;20533;-75
2022/05/21 11:58:57;;;;;;;13.38;5.75;;;;;;;17.32;100.00;100920.97;5265125;28;20089;-76
2022/05/21 12:01:38;;;;;;;15.05;5.75;;;;;;;17.47;97.03;100914.84;5266100;28;20024;-76
2022/05/21 12:04:40;;;;;;;11.32;4.95;;;;;;;17.55;96.02;100917.03;5262014;28;20036;-76
2022/05/21 12:07:35;;;;;;;9.60;5.53;;;;;;;17.90;94.41;100918.44;5260708;28;20086;-74
2022/05/21 12:10:49;;;;;;;9.50;5.70;;;;;;;18.36;96.53;100910.28;5265322;28;20039;-76
2022/05/21 12:13:41;;;;;;;8.57;4.78;;;;;;;18.15;90.92;100918.66;5265351;28;20032;-76
2022/05/21 12:16:19;;;;;;;10.45;4.93;;;;;;;17.98;91.64;100927.59;5265100;28;20122;-73
2022/05/21 12:19:01;;;;;;;8.63;4.82;;;;;;;17.68;91.02;100936.53;5263882;28;20035;-76
2022/05/21 12:21:39;;;;;;;10.73;5.05;;;;;;;17.29;92.78;100941.44;5265917;28;20085;-75
2022/05/21 12:24:25;;;;;;;8.23;4.93;;;;;;;17.39;95.42;100938.22;5263549;28;20039;-76
2022/05/21 12:27:24;;;;;;;11.00;5.65;;;;;;;17.27;96.72;100945.94;5265312;28;20020;-76
2022/05/21 12:30:00;;;;;;;11.57;6.00;;;;;;;16.96;100.00;100953.91;5264506;28;20516;-76